This is the latest recevied weather packets stored in our database for station/object 5B4APJ-13. If no packets are shown the sender has not sent any weather packets the latest 10 day(s).
| Time | Temp. | Humidity | Pressure | Rain* | Wind** | Luminosity | Snow |
|---|---|---|---|---|---|---|---|
| 1777764425 | 13.33° C | 85% | 1008.6 hPa | 0.25 mm | 0.45 m/s, 256° | 0 W/m² | - |
| 1777764124 | 13.33° C | 84% | 1008.7 hPa | 0.25 mm | 0.89 m/s, 256° | 0 W/m² | - |
| 1777763825 | 13.33° C | 83% | 1008.6 hPa | 0.25 mm | 0.89 m/s, 232° | 0 W/m² | - |
| 1777763524 | 13.33° C | 84% | 1008.8 hPa | 0.25 mm | 0 m/s | 0 W/m² | - |
| 1777763225 | 13.89° C | 83% | 1008.9 hPa | 0.25 mm | 0.45 m/s, 184° | 0 W/m² | - |
| 1777762925 | 13.89° C | 82% | 1008.9 hPa | 0 mm | 0 m/s | 0 W/m² | - |
| 1777762626 | 13.89° C | 81% | 1008.8 hPa | 0 mm | 0.89 m/s, 240° | 0 W/m² | - |
| 1777762324 | 13.89° C | 81% | 1008.9 hPa | 0 mm | 0.89 m/s, 230° | 0 W/m² | - |
| 1777762025 | 13.89° C | 80% | 1008.6 hPa | 0 mm | 0.89 m/s, 253° | 0 W/m² | - |
| 1777761725 | 13.89° C | 80% | 1008.7 hPa | 0 mm | 0 m/s | 0 W/m² | - |
| 1777761425 | 13.89° C | 80% | 1009 hPa | 0 mm | 0 m/s | 0 W/m² | - |
| 1777761124 | 13.89° C | 79% | 1009 hPa | 0 mm | 0.45 m/s, 142° | 0 W/m² | - |
| 1777760825 | 13.89° C | 79% | 1008.9 hPa | 0 mm | 0 m/s | 0 W/m² | - |
| 1777760525 | 13.89° C | 79% | 1008.8 hPa | 0 mm | 0 m/s | 0 W/m² | - |
| 1777760225 | 13.89° C | 78% | 1008.3 hPa | 0 mm | 0.89 m/s, 324° | 0 W/m² | - |
| 1777759924 | 13.89° C | 78% | 1009 hPa | 0 mm | 0 m/s | 0 W/m² | - |
| 1777759625 | 13.89° C | 77% | 1009.2 hPa | 0 mm | 0.45 m/s, 117° | 0 W/m² | - |
| 1777759325 | 14.44° C | 77% | 1009.6 hPa | 0 mm | 0 m/s | 0 W/m² | - |
| 1777759025 | 14.44° C | 75% | 1009.6 hPa | 0 mm | 0.89 m/s, 116° | 0 W/m² | - |
| 1777758725 | 14.44° C | 75% | 1009.7 hPa | 0 mm | 0.45 m/s, 122° | 0 W/m² | - |
| 1777758426 | 14.44° C | 74% | 1009.5 hPa | 0 mm | 0 m/s | 0 W/m² | - |
| 1777758125 | 14.44° C | 74% | 1009.8 hPa | 0 mm | 0.45 m/s, 122° | 0 W/m² | - |
| 1777757825 | 14.44° C | 73% | 1010.1 hPa | 0 mm | 0 m/s | 0 W/m² | - |
| 1777757526 | 14.44° C | 71% | 1010.1 hPa | 0 mm | 0.89 m/s, 140° | 0 W/m² | - |
| 1777757225 | 15° C | 70% | 1009.8 hPa | 0 mm | 0.45 m/s, 273° | 0 W/m² | - |
* Rain latest hour (hover to see other rain measurements)
** Current wind speed in m/s (hover to see current wind gust speed)